sensor_id;sensor_type;location;lat;lon;timestamp;pressure;altitude;pressure_sealevel;temperature
14851;BMP180;7517;48.400;11.770;2023-04-24T00:01:49;95531.00;;;15.80
14851;BMP180;7517;48.400;11.770;2023-04-24T00:04:16;95536.00;;;15.80
14851;BMP180;7517;48.400;11.770;2023-04-24T00:06:44;95530.00;;;15.80
14851;BMP180;7517;48.400;11.770;2023-04-24T00:09:15;95531.00;;;15.80
14851;BMP180;7517;48.400;11.770;2023-04-24T00:11:42;95530.00;;;15.80
14851;BMP180;7517;48.400;11.770;2023-04-24T00:14:09;95534.00;;;15.80
14851;BMP180;7517;48.400;11.770;2023-04-24T00:16:37;95531.00;;;15.80
14851;BMP180;7517;48.400;11.770;2023-04-24T00:19:05;95518.00;;;15.80
14851;BMP180;7517;48.400;11.770;2023-04-24T00:21:32;95521.00;;;15.80
14851;BMP180;7517;48.400;11.770;2023-04-24T00:24:00;95525.00;;;15.70
14851;BMP180;7517;48.400;11.770;2023-04-24T00:26:27;95516.00;;;15.80
14851;BMP180;7517;48.400;11.770;2023-04-24T00:28:54;95514.00;;;15.70
14851;BMP180;7517;48.400;11.770;2023-04-24T00:31:21;95514.00;;;15.80
14851;BMP180;7517;48.400;11.770;2023-04-24T00:33:48;95511.00;;;15.80
14851;BMP180;7517;48.400;11.770;2023-04-24T00:36:17;95515.00;;;15.70
14851;BMP180;7517;48.400;11.770;2023-04-24T00:38:45;95509.00;;;15.70
14851;BMP180;7517;48.400;11.770;2023-04-24T00:41:12;95513.00;;;15.70
14851;BMP180;7517;48.400;11.770;2023-04-24T00:43:41;95509.00;;;15.70
14851;BMP180;7517;48.400;11.770;2023-04-24T00:46:08;95512.00;;;15.70
14851;BMP180;7517;48.400;11.770;2023-04-24T00:48:39;95516.00;;;15.70
14851;BMP180;7517;48.400;11.770;2023-04-24T00:51:07;95510.00;;;15.70
14851;BMP180;7517;48.400;11.770;2023-04-24T00:53:36;95514.00;;;15.70
14851;BMP180;7517;48.400;11.770;2023-04-24T00:56:04;95516.00;;;15.70
14851;BMP180;7517;48.400;11.770;2023-04-24T00:58:32;95519.00;;;15.70
14851;BMP180;7517;48.400;11.770;2023-04-24T01:01:00;95520.00;;;15.70
14851;BMP180;7517;48.400;11.770;2023-04-24T01:03:29;95518.00;;;15.70
14851;BMP180;7517;48.400;11.770;2023-04-24T01:05:58;95518.00;;;15.70
14851;BMP180;7517;48.400;11.770;2023-04-24T01:08:28;95519.00;;;15.70
14851;BMP180;7517;48.400;11.770;2023-04-24T01:10:57;95521.00;;;15.70
14851;BMP180;7517;48.400;11.770;2023-04-24T01:13:25;95520.00;;;15.70
14851;BMP180;7517;48.400;11.770;2023-04-24T01:15:52;95515.00;;;15.70
14851;BMP180;7517;48.400;11.770;2023-04-24T01:18:19;95512.00;;;15.70
14851;BMP180;7517;48.400;11.770;2023-04-24T01:20:49;95514.00;;;15.70
14851;BMP180;7517;48.400;11.770;2023-04-24T01:23:19;95511.00;;;15.70
14851;BMP180;7517;48.400;11.770;2023-04-24T01:25:48;95514.00;;;15.70
14851;BMP180;7517;48.400;11.770;2023-04-24T01:28:16;95507.00;;;15.70
14851;BMP180;7517;48.400;11.770;2023-04-24T01:30:44;95508.00;;;15.70
14851;BMP180;7517;48.400;11.770;2023-04-24T01:33:12;95505.00;;;15.70
14851;BMP180;7517;48.400;11.770;2023-04-24T01:35:39;95503.00;;;15.70
14851;BMP180;7517;48.400;11.770;2023-04-24T01:38:08;95498.00;;;15.70
14851;BMP180;7517;48.400;11.770;2023-04-24T01:40:38;95491.00;;;15.70
14851;BMP180;7517;48.400;11.770;2023-04-24T01:43:05;95491.00;;;15.70
14851;BMP180;7517;48.400;11.770;2023-04-24T01:45:32;95490.00;;;15.70
14851;BMP180;7517;48.400;11.770;2023-04-24T01:48:00;95489.00;;;15.70
14851;BMP180;7517;48.400;11.770;2023-04-24T01:50:28;95486.00;;;15.70
14851;BMP180;7517;48.400;11.770;2023-04-24T01:52:55;95490.00;;;15.70
14851;BMP180;7517;48.400;11.770;2023-04-24T01:55:22;95491.00;;;15.70
14851;BMP180;7517;48.400;11.770;2023-04-24T01:57:55;95489.00;;;15.60
14851;BMP180;7517;48.400;11.770;2023-04-24T02:00:23;95486.00;;;15.60
14851;BMP180;7517;48.400;11.770;2023-04-24T02:02:50;95484.00;;;15.60
14851;BMP180;7517;48.400;11.770;2023-04-24T02:05:18;95487.00;;;15.60
14851;BMP180;7517;48.400;11.770;2023-04-24T02:07:45;95478.00;;;15.60
14851;BMP180;7517;48.400;11.770;2023-04-24T02:10:12;95479.00;;;15.60
14851;BMP180;7517;48.400;11.770;2023-04-24T02:12:39;95476.00;;;15.50
14851;BMP180;7517;48.400;11.770;2023-04-24T02:15:10;95478.00;;;15.50
14851;BMP180;7517;48.400;11.770;2023-04-24T02:17:38;95475.00;;;15.50
14851;BMP180;7517;48.400;11.770;2023-04-24T02:20:07;95471.00;;;15.40
14851;BMP180;7517;48.400;11.770;2023-04-24T02:22:34;95475.00;;;15.40
14851;BMP180;7517;48.400;11.770;2023-04-24T02:25:02;95467.00;;;15.40
14851;BMP180;7517;48.400;11.770;2023-04-24T02:27:30;95481.00;;;15.40
14851;BMP180;7517;48.400;11.770;2023-04-24T02:29:57;95477.00;;;15.30
14851;BMP180;7517;48.400;11.770;2023-04-24T02:32:26;95476.00;;;15.30
14851;BMP180;7517;48.400;11.770;2023-04-24T02:34:54;95473.00;;;15.30
14851;BMP180;7517;48.400;11.770;2023-04-24T02:37:21;95476.00;;;15.20
14851;BMP180;7517;48.400;11.770;2023-04-24T02:39:49;95466.00;;;15.20
14851;BMP180;7517;48.400;11.770;2023-04-24T02:42:16;95480.00;;;15.20
14851;BMP180;7517;48.400;11.770;2023-04-24T02:44:43;95479.00;;;15.20
14851;BMP180;7517;48.400;11.770;2023-04-24T02:47:10;95480.00;;;15.10
14851;BMP180;7517;48.400;11.770;2023-04-24T02:49:39;95473.00;;;15.10
14851;BMP180;7517;48.400;11.770;2023-04-24T02:52:06;95474.00;;;15.10
14851;BMP180;7517;48.400;11.770;2023-04-24T02:54:33;95476.00;;;15.10
14851;BMP180;7517;48.400;11.770;2023-04-24T02:57:00;95473.00;;;15.10
14851;BMP180;7517;48.400;11.770;2023-04-24T02:59:28;95470.00;;;15.00
14851;BMP180;7517;48.400;11.770;2023-04-24T03:01:55;95474.00;;;15.00
14851;BMP180;7517;48.400;11.770;2023-04-24T03:04:22;95476.00;;;15.00
14851;BMP180;7517;48.400;11.770;2023-04-24T03:06:52;95468.00;;;15.00
14851;BMP180;7517;48.400;11.770;2023-04-24T03:09:20;95468.00;;;15.00
14851;BMP180;7517;48.400;11.770;2023-04-24T03:11:48;95465.00;;;15.00
14851;BMP180;7517;48.400;11.770;2023-04-24T03:14:15;95463.00;;;15.00
14851;BMP180;7517;48.400;11.770;2023-04-24T03:16:43;95471.00;;;14.90
14851;BMP180;7517;48.400;11.770;2023-04-24T03:19:10;95471.00;;;14.90
14851;BMP180;7517;48.400;11.770;2023-04-24T03:21:38;95468.00;;;14.90
14851;BMP180;7517;48.400;11.770;2023-04-24T03:24:08;95468.00;;;14.90
14851;BMP180;7517;48.400;11.770;2023-04-24T03:26:35;95480.00;;;14.90
14851;BMP180;7517;48.400;11.770;2023-04-24T03:29:03;95473.00;;;14.90
14851;BMP180;7517;48.400;11.770;2023-04-24T03:31:30;95467.00;;;14.90
14851;BMP180;7517;48.400;11.770;2023-04-24T03:33:57;95476.00;;;14.90
14851;BMP180;7517;48.400;11.770;2023-04-24T03:36:25;95478.00;;;14.80
14851;BMP180;7517;48.400;11.770;2023-04-24T03:38:53;95474.00;;;14.80
14851;BMP180;7517;48.400;11.770;2023-04-24T03:41:22;95480.00;;;14.80
14851;BMP180;7517;48.400;11.770;2023-04-24T03:43:49;95479.00;;;14.80
14851;BMP180;7517;48.400;11.770;2023-04-24T03:46:16;95491.00;;;14.80
14851;BMP180;7517;48.400;11.770;2023-04-24T03:48:44;95495.00;;;14.80
14851;BMP180;7517;48.400;11.770;2023-04-24T03:51:11;95495.00;;;14.80
14851;BMP180;7517;48.400;11.770;2023-04-24T03:53:38;95488.00;;;14.80
14851;BMP180;7517;48.400;11.770;2023-04-24T03:56:05;95499.00;;;14.70
14851;BMP180;7517;48.400;11.770;2023-04-24T03:58:34;95498.00;;;14.70
14851;BMP180;7517;48.400;11.770;2023-04-24T04:01:01;95494.00;;;14.70
14851;BMP180;7517;48.400;11.770;2023-04-24T04:03:28;95496.00;;;14.70
14851;BMP180;7517;48.400;11.770;2023-04-24T04:05:56;95490.00;;;14.70
14851;BMP180;7517;48.400;11.770;2023-04-24T04:08:23;95493.00;;;14.70
14851;BMP180;7517;48.400;11.770;2023-04-24T04:10:50;95487.00;;;14.70
14851;BMP180;7517;48.400;11.770;2023-04-24T04:13:17;95484.00;;;14.70
14851;BMP180;7517;48.400;11.770;2023-04-24T04:15:46;95488.00;;;14.70
14851;BMP180;7517;48.400;11.770;2023-04-24T04:18:13;95485.00;;;14.70
14851;BMP180;7517;48.400;11.770;2023-04-24T04:20:40;95490.00;;;14.70
14851;BMP180;7517;48.400;11.770;2023-04-24T04:23:08;95484.00;;;14.70
14851;BMP180;7517;48.400;11.770;2023-04-24T04:25:35;95480.00;;;14.70
14851;BMP180;7517;48.400;11.770;2023-04-24T04:28:03;95482.00;;;14.70
14851;BMP180;7517;48.400;11.770;2023-04-24T04:30:30;95476.00;;;14.70
14851;BMP180;7517;48.400;11.770;2023-04-24T04:32:59;95485.00;;;14.80
14851;BMP180;7517;48.400;11.770;2023-04-24T04:35:27;95481.00;;;14.80
14851;BMP180;7517;48.400;11.770;2023-04-24T04:37:54;95485.00;;;14.90
14851;BMP180;7517;48.400;11.770;2023-04-24T04:40:22;95483.00;;;14.90
14851;BMP180;7517;48.400;11.770;2023-04-24T04:42:49;95490.00;;;14.90
14851;BMP180;7517;48.400;11.770;2023-04-24T04:45:18;95485.00;;;14.90
14851;BMP180;7517;48.400;11.770;2023-04-24T04:47:47;95495.00;;;14.90
14851;BMP180;7517;48.400;11.770;2023-04-24T04:50:16;95497.00;;;15.00
14851;BMP180;7517;48.400;11.770;2023-04-24T04:52:45;95493.00;;;15.00
14851;BMP180;7517;48.400;11.770;2023-04-24T04:55:15;95495.00;;;15.00
14851;BMP180;7517;48.400;11.770;2023-04-24T04:57:42;95500.00;;;15.00
14851;BMP180;7517;48.400;11.770;2023-04-24T05:00:16;95500.00;;;15.00
14851;BMP180;7517;48.400;11.770;2023-04-24T05:02:43;95505.00;;;14.90
14851;BMP180;7517;48.400;11.770;2023-04-24T05:05:11;95501.00;;;14.90
14851;BMP180;7517;48.400;11.770;2023-04-24T05:07:39;95508.00;;;14.90
14851;BMP180;7517;48.400;11.770;2023-04-24T05:10:08;95508.00;;;15.00
14851;BMP180;7517;48.400;11.770;2023-04-24T05:12:36;95508.00;;;15.00
14851;BMP180;7517;48.400;11.770;2023-04-24T05:15:04;95511.00;;;15.00
14851;BMP180;7517;48.400;11.770;2023-04-24T05:17:32;95516.00;;;15.00
14851;BMP180;7517;48.400;11.770;2023-04-24T05:19:59;95516.00;;;15.00
14851;BMP180;7517;48.400;11.770;2023-04-24T05:22:27;95517.00;;;15.00
14851;BMP180;7517;48.400;11.770;2023-04-24T05:24:56;95514.00;;;15.00
14851;BMP180;7517;48.400;11.770;2023-04-24T05:27:23;95516.00;;;15.10
14851;BMP180;7517;48.400;11.770;2023-04-24T05:29:51;95527.00;;;15.10
14851;BMP180;7517;48.400;11.770;2023-04-24T05:32:18;95525.00;;;15.10
14851;BMP180;7517;48.400;11.770;2023-04-24T05:34:46;95521.00;;;15.10
14851;BMP180;7517;48.400;11.770;2023-04-24T05:37:13;95514.00;;;15.10
14851;BMP180;7517;48.400;11.770;2023-04-24T05:39:40;95514.00;;;15.20
14851;BMP180;7517;48.400;11.770;2023-04-24T05:42:09;95519.00;;;15.20
14851;BMP180;7517;48.400;11.770;2023-04-24T05:44:36;95520.00;;;15.20
14851;BMP180;7517;48.400;11.770;2023-04-24T05:47:03;95522.00;;;15.20
14851;BMP180;7517;48.400;11.770;2023-04-24T05:49:31;95529.00;;;15.20
14851;BMP180;7517;48.400;11.770;2023-04-24T05:51:59;95526.00;;;15.30
14851;BMP180;7517;48.400;11.770;2023-04-24T05:54:26;95523.00;;;15.30
14851;BMP180;7517;48.400;11.770;2023-04-24T05:56:54;95538.00;;;15.30
14851;BMP180;7517;48.400;11.770;2023-04-24T05:59:23;95532.00;;;15.30
14851;BMP180;7517;48.400;11.770;2023-04-24T06:01:50;95542.00;;;15.30
14851;BMP180;7517;48.400;11.770;2023-04-24T06:04:17;95542.00;;;15.30
14851;BMP180;7517;48.400;11.770;2023-04-24T06:06:44;95540.00;;;15.30
14851;BMP180;7517;48.400;11.770;2023-04-24T06:09:12;95537.00;;;15.30
14851;BMP180;7517;48.400;11.770;2023-04-24T06:11:40;95530.00;;;15.30
14851;BMP180;7517;48.400;11.770;2023-04-24T06:14:08;95542.00;;;15.30
14851;BMP180;7517;48.400;11.770;2023-04-24T06:16:37;95537.00;;;15.30
14851;BMP180;7517;48.400;11.770;2023-04-24T06:19:04;95543.00;;;15.40
14851;BMP180;7517;48.400;11.770;2023-04-24T06:21:31;95543.00;;;15.40
14851;BMP180;7517;48.400;11.770;2023-04-24T06:23:59;95541.00;;;15.40
14851;BMP180;7517;48.400;11.770;2023-04-24T06:26:26;95541.00;;;15.50
14851;BMP180;7517;48.400;11.770;2023-04-24T06:28:54;95539.00;;;15.50
14851;BMP180;7517;48.400;11.770;2023-04-24T06:31:21;95533.00;;;15.50
14851;BMP180;7517;48.400;11.770;2023-04-24T06:33:50;95539.00;;;15.60
14851;BMP180;7517;48.400;11.770;2023-04-24T06:36:18;95543.00;;;15.60
14851;BMP180;7517;48.400;11.770;2023-04-24T06:38:45;95539.00;;;15.60
14851;BMP180;7517;48.400;11.770;2023-04-24T06:41:12;95536.00;;;15.60
14851;BMP180;7517;48.400;11.770;2023-04-24T06:43:39;95545.00;;;15.60
14851;BMP180;7517;48.400;11.770;2023-04-24T06:46:07;95539.00;;;15.70
14851;BMP180;7517;48.400;11.770;2023-04-24T06:48:34;95542.00;;;15.70
14851;BMP180;7517;48.400;11.770;2023-04-24T06:51:05;95540.00;;;15.80
14851;BMP180;7517;48.400;11.770;2023-04-24T06:53:33;95547.00;;;15.80
14851;BMP180;7517;48.400;11.770;2023-04-24T06:56:00;95549.00;;;15.90
14851;BMP180;7517;48.400;11.770;2023-04-24T06:58:28;95554.00;;;15.90
14851;BMP180;7517;48.400;11.770;2023-04-24T07:00:57;95554.00;;;15.90
14851;BMP180;7517;48.400;11.770;2023-04-24T07:03:24;95559.00;;;16.00
14851;BMP180;7517;48.400;11.770;2023-04-24T07:05:54;95556.00;;;16.00
14851;BMP180;7517;48.400;11.770;2023-04-24T07:08:23;95551.00;;;16.00
14851;BMP180;7517;48.400;11.770;2023-04-24T07:10:51;95555.00;;;15.90
14851;BMP180;7517;48.400;11.770;2023-04-24T07:13:18;95557.00;;;15.90
14851;BMP180;7517;48.400;11.770;2023-04-24T07:15:46;95559.00;;;16.00
14851;BMP180;7517;48.400;11.770;2023-04-24T07:18:14;95560.00;;;16.10
14851;BMP180;7517;48.400;11.770;2023-04-24T07:20:42;95570.00;;;16.10
14851;BMP180;7517;48.400;11.770;2023-04-24T07:23:09;95566.00;;;16.20
14851;BMP180;7517;48.400;11.770;2023-04-24T07:25:38;95565.00;;;16.20
14851;BMP180;7517;48.400;11.770;2023-04-24T07:28:05;95559.00;;;16.20
14851;BMP180;7517;48.400;11.770;2023-04-24T07:30:33;95552.00;;;16.30
14851;BMP180;7517;48.400;11.770;2023-04-24T07:33:00;95562.00;;;16.40
14851;BMP180;7517;48.400;11.770;2023-04-24T07:35:28;95557.00;;;16.50
14851;BMP180;7517;48.400;11.770;2023-04-24T07:37:55;95566.00;;;16.70
14851;BMP180;7517;48.400;11.770;2023-04-24T07:40:23;95573.00;;;16.80
14851;BMP180;7517;48.400;11.770;2023-04-24T07:42:51;95583.00;;;16.90
14851;BMP180;7517;48.400;11.770;2023-04-24T07:45:20;95581.00;;;17.00
14851;BMP180;7517;48.400;11.770;2023-04-24T07:47:50;95585.00;;;17.00
14851;BMP180;7517;48.400;11.770;2023-04-24T07:50:17;95596.00;;;17.00
14851;BMP180;7517;48.400;11.770;2023-04-24T07:52:45;95591.00;;;17.10
14851;BMP180;7517;48.400;11.770;2023-04-24T07:55:12;95583.00;;;17.10
14851;BMP180;7517;48.400;11.770;2023-04-24T07:57:40;95596.00;;;17.20
14851;BMP180;7517;48.400;11.770;2023-04-24T08:00:11;95587.00;;;17.30
14851;BMP180;7517;48.400;11.770;2023-04-24T08:02:38;95600.00;;;17.40
14851;BMP180;7517;48.400;11.770;2023-04-24T08:05:06;95604.00;;;17.50
14851;BMP180;7517;48.400;11.770;2023-04-24T08:07:34;95597.00;;;17.60
14851;BMP180;7517;48.400;11.770;2023-04-24T08:10:02;95605.00;;;17.60
14851;BMP180;7517;48.400;11.770;2023-04-24T08:12:30;95616.00;;;17.60
14851;BMP180;7517;48.400;11.770;2023-04-24T08:14:57;95607.00;;;17.50
14851;BMP180;7517;48.400;11.770;2023-04-24T08:17:26;95624.00;;;17.50
14851;BMP180;7517;48.400;11.770;2023-04-24T08:19:53;95613.00;;;17.50
14851;BMP180;7517;48.400;11.770;2023-04-24T08:22:26;95615.00;;;17.50
14851;BMP180;7517;48.400;11.770;2023-04-24T08:24:54;95615.00;;;17.50
14851;BMP180;7517;48.400;11.770;2023-04-24T08:27:23;95619.00;;;17.50
14851;BMP180;7517;48.400;11.770;2023-04-24T08:29:50;95610.00;;;17.50
14851;BMP180;7517;48.400;11.770;2023-04-24T08:32:17;95615.00;;;17.50
14851;BMP180;7517;48.400;11.770;2023-04-24T08:34:46;95617.00;;;17.50
14851;BMP180;7517;48.400;11.770;2023-04-24T08:37:13;95618.00;;;17.50
14851;BMP180;7517;48.400;11.770;2023-04-24T08:39:40;95626.00;;;17.60
14851;BMP180;7517;48.400;11.770;2023-04-24T08:42:10;95655.00;;;17.50
14851;BMP180;7517;48.400;11.770;2023-04-24T08:44:38;95671.00;;;17.40
14851;BMP180;7517;48.400;11.770;2023-04-24T08:47:07;95673.00;;;17.20
14851;BMP180;7517;48.400;11.770;2023-04-24T08:49:36;95660.00;;;16.90
14851;BMP180;7517;48.400;11.770;2023-04-24T08:52:06;95668.00;;;16.70
14851;BMP180;7517;48.400;11.770;2023-04-24T08:54:34;95665.00;;;16.40
14851;BMP180;7517;48.400;11.770;2023-04-24T08:57:03;95657.00;;;16.30
14851;BMP180;7517;48.400;11.770;2023-04-24T08:59:31;95665.00;;;16.10
14851;BMP180;7517;48.400;11.770;2023-04-24T09:01:59;95663.00;;;16.00
14851;BMP180;7517;48.400;11.770;2023-04-24T09:04:29;95667.00;;;15.90
14851;BMP180;7517;48.400;11.770;2023-04-24T09:06:58;95663.00;;;15.90
14851;BMP180;7517;48.400;11.770;2023-04-24T09:09:30;95662.00;;;15.80
14851;BMP180;7517;48.400;11.770;2023-04-24T09:12:00;95662.00;;;15.70
14851;BMP180;7517;48.400;11.770;2023-04-24T09:14:29;95662.00;;;15.80
14851;BMP180;7517;48.400;11.770;2023-04-24T09:16:58;95659.00;;;15.80
14851;BMP180;7517;48.400;11.770;2023-04-24T09:19:25;95661.00;;;15.80
14851;BMP180;7517;48.400;11.770;2023-04-24T09:21:53;95654.00;;;15.90
14851;BMP180;7517;48.400;11.770;2023-04-24T09:24:21;95644.00;;;16.00
14851;BMP180;7517;48.400;11.770;2023-04-24T09:26:56;95650.00;;;16.10
14851;BMP180;7517;48.400;11.770;2023-04-24T09:29:25;95647.00;;;16.10
14851;BMP180;7517;48.400;11.770;2023-04-24T09:31:52;95651.00;;;16.20
14851;BMP180;7517;48.400;11.770;2023-04-24T09:34:23;95651.00;;;16.30
14851;BMP180;7517;48.400;11.770;2023-04-24T09:36:51;95667.00;;;16.40
14851;BMP180;7517;48.400;11.770;2023-04-24T09:39:19;95674.00;;;16.40
14851;BMP180;7517;48.400;11.770;2023-04-24T09:41:48;95664.00;;;16.50
14851;BMP180;7517;48.400;11.770;2023-04-24T09:44:18;95668.00;;;16.60
14851;BMP180;7517;48.400;11.770;2023-04-24T09:46:52;95659.00;;;16.70
14851;BMP180;7517;48.400;11.770;2023-04-24T09:49:24;95664.00;;;16.80
14851;BMP180;7517;48.400;11.770;2023-04-24T09:51:52;95664.00;;;17.00
14851;BMP180;7517;48.400;11.770;2023-04-24T09:54:29;95665.00;;;17.10
14851;BMP180;7517;48.400;11.770;2023-04-24T09:56:56;95666.00;;;17.10
14851;BMP180;7517;48.400;11.770;2023-04-24T09:59:27;95653.00;;;17.30
14851;BMP180;7517;48.400;11.770;2023-04-24T10:01:54;95663.00;;;17.40
14851;BMP180;7517;48.400;11.770;2023-04-24T10:04:25;95666.00;;;17.50
14851;BMP180;7517;48.400;11.770;2023-04-24T10:06:55;95671.00;;;17.70
14851;BMP180;7517;48.400;11.770;2023-04-24T10:09:25;95663.00;;;17.80
14851;BMP180;7517;48.400;11.770;2023-04-24T10:11:54;95668.00;;;17.90
14851;BMP180;7517;48.400;11.770;2023-04-24T10:14:23;95669.00;;;17.90
14851;BMP180;7517;48.400;11.770;2023-04-24T10:16:55;95665.00;;;17.90
14851;BMP180;7517;48.400;11.770;2023-04-24T10:19:26;95673.00;;;17.90
14851;BMP180;7517;48.400;11.770;2023-04-24T10:21:54;95663.00;;;17.90
14851;BMP180;7517;48.400;11.770;2023-04-24T10:24:23;95657.00;;;17.90
14851;BMP180;7517;48.400;11.770;2023-04-24T10:26:50;95665.00;;;17.90
14851;BMP180;7517;48.400;11.770;2023-04-24T10:29:19;95658.00;;;18.00
14851;BMP180;7517;48.400;11.770;2023-04-24T10:31:48;95660.00;;;18.10
14851;BMP180;7517;48.400;11.770;2023-04-24T10:34:19;95659.00;;;18.20
14851;BMP180;7517;48.400;11.770;2023-04-24T10:36:51;95660.00;;;18.30
14851;BMP180;7517;48.400;11.770;2023-04-24T10:39:20;95663.00;;;18.40
14851;BMP180;7517;48.400;11.770;2023-04-24T10:41:49;95665.00;;;18.40
14851;BMP180;7517;48.400;11.770;2023-04-24T10:44:17;95649.00;;;18.40
14851;BMP180;7517;48.400;11.770;2023-04-24T10:46:47;95655.00;;;18.40
14851;BMP180;7517;48.400;11.770;2023-04-24T10:49:28;95650.00;;;18.50
14851;BMP180;7517;48.400;11.770;2023-04-24T10:52:02;95651.00;;;18.60
14851;BMP180;7517;48.400;11.770;2023-04-24T10:54:36;95644.00;;;18.60
14851;BMP180;7517;48.400;11.770;2023-04-24T10:57:28;95643.00;;;18.70
14851;BMP180;7517;48.400;11.770;2023-04-24T11:00:30;95652.00;;;18.90
14851;BMP180;7517;48.400;11.770;2023-04-24T11:02:57;95659.00;;;19.00
14851;BMP180;7517;48.400;11.770;2023-04-24T11:06:00;95654.00;;;19.20
14851;BMP180;7517;48.400;11.770;2023-04-24T11:08:37;95654.00;;;19.20
14851;BMP180;7517;48.400;11.770;2023-04-24T11:11:11;95661.00;;;19.30
14851;BMP180;7517;48.400;11.770;2023-04-24T11:14:07;95669.00;;;19.30
14851;BMP180;7517;48.400;11.770;2023-04-24T11:16:39;95666.00;;;19.20
14851;BMP180;7517;48.400;11.770;2023-04-24T11:19:18;95697.00;;;19.10
14851;BMP180;7517;48.400;11.770;2023-04-24T11:21:48;95723.00;;;18.90
14851;BMP180;7517;48.400;11.770;2023-04-24T11:24:32;95729.00;;;18.70
14851;BMP180;7517;48.400;11.770;2023-04-24T11:27:15;95730.00;;;18.40
14851;BMP180;7517;48.400;11.770;2023-04-24T11:29:45;95730.00;;;18.10
14851;BMP180;7517;48.400;11.770;2023-04-24T11:32:25;95735.00;;;17.80
14851;BMP180;7517;48.400;11.770;2023-04-24T11:34:55;95719.00;;;17.60
14851;BMP180;7517;48.400;11.770;2023-04-24T11:37:26;95722.00;;;17.40
14851;BMP180;7517;48.400;11.770;2023-04-24T11:39:55;95709.00;;;17.40
14851;BMP180;7517;48.400;11.770;2023-04-24T11:42:23;95709.00;;;17.30
14851;BMP180;7517;48.400;11.770;2023-04-24T11:44:53;95715.00;;;17.30
14851;BMP180;7517;48.400;11.770;2023-04-24T11:47:28;95711.00;;;17.30
14851;BMP180;7517;48.400;11.770;2023-04-24T11:49:58;95710.00;;;17.30
14851;BMP180;7517;48.400;11.770;2023-04-24T11:52:29;95706.00;;;17.30
14851;BMP180;7517;48.400;11.770;2023-04-24T11:54:57;95693.00;;;17.30
14851;BMP180;7517;48.400;11.770;2023-04-24T11:57:25;95704.00;;;17.30
14851;BMP180;7517;48.400;11.770;2023-04-24T11:59:54;95696.00;;;17.30
14851;BMP180;7517;48.400;11.770;2023-04-24T12:02:23;95691.00;;;17.30
14851;BMP180;7517;48.400;11.770;2023-04-24T12:04:52;95693.00;;;17.40
14851;BMP180;7517;48.400;11.770;2023-04-24T12:07:20;95687.00;;;17.40
14851;BMP180;7517;48.400;11.770;2023-04-24T12:09:56;95692.00;;;17.40
14851;BMP180;7517;48.400;11.770;2023-04-24T12:12:27;95695.00;;;17.40
14851;BMP180;7517;48.400;11.770;2023-04-24T12:14:56;95693.00;;;17.50
14851;BMP180;7517;48.400;11.770;2023-04-24T12:17:30;95694.00;;;17.60
14851;BMP180;7517;48.400;11.770;2023-04-24T12:19:59;95687.00;;;17.70
14851;BMP180;7517;48.400;11.770;2023-04-24T12:22:42;95693.00;;;17.70
14851;BMP180;7517;48.400;11.770;2023-04-24T12:25:11;95680.00;;;17.80
14851;BMP180;7517;48.400;11.770;2023-04-24T12:27:39;95678.00;;;17.90
14851;BMP180;7517;48.400;11.770;2023-04-24T12:30:12;95680.00;;;18.00
14851;BMP180;7517;48.400;11.770;2023-04-24T12:32:47;95678.00;;;18.00
14851;BMP180;7517;48.400;11.770;2023-04-24T12:35:20;95676.00;;;18.10
14851;BMP180;7517;48.400;11.770;2023-04-24T12:37:47;95681.00;;;18.10
14851;BMP180;7517;48.400;11.770;2023-04-24T12:40:18;95675.00;;;18.10
14851;BMP180;7517;48.400;11.770;2023-04-24T12:42:47;95675.00;;;18.10
14851;BMP180;7517;48.400;11.770;2023-04-24T12:45:17;95671.00;;;18.10
14851;BMP180;7517;48.400;11.770;2023-04-24T12:47:46;95680.00;;;18.10
14851;BMP180;7517;48.400;11.770;2023-04-24T12:50:15;95670.00;;;18.20
14851;BMP180;7517;48.400;11.770;2023-04-24T12:52:43;95678.00;;;18.20
14851;BMP180;7517;48.400;11.770;2023-04-24T12:55:10;95680.00;;;18.20
14851;BMP180;7517;48.400;11.770;2023-04-24T12:57:40;95684.00;;;18.20
14851;BMP180;7517;48.400;11.770;2023-04-24T13:00:16;95683.00;;;18.30
14851;BMP180;7517;48.400;11.770;2023-04-24T13:02:49;95678.00;;;18.30
14851;BMP180;7517;48.400;11.770;2023-04-24T13:05:17;95686.00;;;18.30
14851;BMP180;7517;48.400;11.770;2023-04-24T13:07:44;95682.00;;;18.30
14851;BMP180;7517;48.400;11.770;2023-04-24T13:10:12;95685.00;;;18.30
14851;BMP180;7517;48.400;11.770;2023-04-24T13:12:41;95682.00;;;18.40
14851;BMP180;7517;48.400;11.770;2023-04-24T13:15:11;95697.00;;;18.50
14851;BMP180;7517;48.400;11.770;2023-04-24T13:17:39;95704.00;;;18.50
14851;BMP180;7517;48.400;11.770;2023-04-24T13:20:07;95709.00;;;18.50
14851;BMP180;7517;48.400;11.770;2023-04-24T13:22:35;95710.00;;;18.50
14851;BMP180;7517;48.400;11.770;2023-04-24T13:25:03;95704.00;;;18.50
14851;BMP180;7517;48.400;11.770;2023-04-24T13:27:31;95705.00;;;18.50
14851;BMP180;7517;48.400;11.770;2023-04-24T13:30:00;95703.00;;;18.50
14851;BMP180;7517;48.400;11.770;2023-04-24T13:32:29;95701.00;;;18.50
14851;BMP180;7517;48.400;11.770;2023-04-24T13:34:57;95699.00;;;18.60
14851;BMP180;7517;48.400;11.770;2023-04-24T13:37:24;95692.00;;;18.60
14851;BMP180;7517;48.400;11.770;2023-04-24T13:39:52;95688.00;;;18.60
14851;BMP180;7517;48.400;11.770;2023-04-24T13:42:20;95693.00;;;18.70
14851;BMP180;7517;48.400;11.770;2023-04-24T13:44:47;95681.00;;;18.70
14851;BMP180;7517;48.400;11.770;2023-04-24T13:47:16;95694.00;;;18.70
14851;BMP180;7517;48.400;11.770;2023-04-24T13:49:43;95704.00;;;18.70
14851;BMP180;7517;48.400;11.770;2023-04-24T13:52:10;95697.00;;;18.70
14851;BMP180;7517;48.400;11.770;2023-04-24T13:54:37;95683.00;;;18.70
14851;BMP180;7517;48.400;11.770;2023-04-24T13:57:05;95698.00;;;18.80
14851;BMP180;7517;48.400;11.770;2023-04-24T13:59:32;95700.00;;;18.80
14851;BMP180;7517;48.400;11.770;2023-04-24T14:01:59;95695.00;;;18.90
14851;BMP180;7517;48.400;11.770;2023-04-24T14:04:28;95709.00;;;18.90
14851;BMP180;7517;48.400;11.770;2023-04-24T14:06:55;95710.00;;;18.90
14851;BMP180;7517;48.400;11.770;2023-04-24T14:09:23;95738.00;;;18.90
14851;BMP180;7517;48.400;11.770;2023-04-24T14:11:51;95722.00;;;18.90
14851;BMP180;7517;48.400;11.770;2023-04-24T14:14:18;95729.00;;;18.90
14851;BMP180;7517;48.400;11.770;2023-04-24T14:16:45;95723.00;;;18.90
14851;BMP180;7517;48.400;11.770;2023-04-24T14:19:12;95730.00;;;18.80